Time;durP1;ratioP1;P1;durP2;ratioP2;P2;SDS_P1;SDS_P2;PMS_P1;PMS_P2;Temp;Humidity;BMP_temperature;BMP_pressure;BME280_temperature;BME280_humidity;BME280_pressure;Samples;Min_cycle;Max_cycle;Signal;HPM_P1;HPM_P2
2024/01/12 00:01:19;;;;;;;3.65;3.35;;;15.40;60.20;;;;;;5007514;28;20045;-85
2024/01/12 00:03:44;;;;;;;3.08;2.88;;;15.40;60.30;;;;;;5018254;28;20458;-84
2024/01/12 00:06:10;;;;;;;3.50;3.20;;;15.40;60.30;;;;;;5020960;28;20042;-85
2024/01/12 00:08:37;;;;;;;3.28;3.08;;;15.40;59.90;;;;;;5019922;28;20080;-86
2024/01/12 00:11:03;;;;;;;3.60;3.33;;;15.30;60.30;;;;;;5015417;28;20495;-86
2024/01/12 00:13:28;;;;;;;3.25;3.05;;;15.30;60.30;;;;;;5024982;28;20057;-85
2024/01/12 00:15:54;;;;;;;3.38;3.17;;;15.30;59.90;;;;;;5016868;28;20132;-86
2024/01/12 00:18:19;;;;;;;2.95;2.75;;;15.30;60.30;;;;;;5018093;28;20033;-84
2024/01/12 00:20:45;;;;;;;3.60;3.40;;;15.30;60.30;;;;;;5021603;28;20084;-85
2024/01/12 00:23:11;;;;;;;3.38;3.17;;;15.30;60.40;;;;;;5022664;28;20052;-84
2024/01/12 00:25:36;;;;;;;2.90;2.70;;;15.30;60.10;;;;;;5020136;28;20563;-84
2024/01/12 00:28:02;;;;;;;2.90;2.70;;;15.30;59.70;;;;;;4994506;28;20064;-85
2024/01/12 00:30:28;;;;;;;3.25;3.05;;;15.20;60.20;;;;;;5015273;28;20048;-81
2024/01/12 00:32:53;;;;;;;2.72;2.53;;;15.20;60.20;;;;;;5043501;28;20077;-81
2024/01/12 00:35:19;;;;;;;2.88;2.67;;;15.20;59.90;;;;;;5006143;28;20103;-81
2024/01/12 00:37:44;;;;;;;2.90;2.70;;;15.20;60.10;;;;;;4995437;28;20100;-81
2024/01/12 00:40:10;;;;;;;3.03;2.83;;;15.20;59.70;;;;;;5006554;28;20117;-81
2024/01/12 00:42:36;;;;;;;3.00;2.80;;;15.20;59.70;;;;;;4999418;28;20119;-81
2024/01/12 00:45:02;;;;;;;2.95;2.75;;;15.20;59.50;;;;;;5002834;28;20106;-81
2024/01/12 00:47:29;;;;;;;3.03;2.83;;;15.20;59.40;;;;;;5012670;28;20069;-81
2024/01/12 00:49:54;;;;;;;2.60;2.50;;;15.10;60.40;;;;;;5004148;28;20103;-81
2024/01/12 00:52:20;;;;;;;2.47;2.30;;;15.10;59.80;;;;;;5009891;28;20029;-81
2024/01/12 00:54:45;;;;;;;2.75;2.55;;;15.10;59.30;;;;;;5025722;28;20043;-81
2024/01/12 00:57:11;;;;;;;2.35;2.25;;;15.10;60.20;;;;;;5022322;28;20057;-82
2024/01/12 00:59:36;;;;;;;2.20;2.00;;;15.10;59.30;;;;;;5010549;28;20037;-81
2024/01/12 01:02:02;;;;;;;2.30;2.20;;;15.10;59.20;;;;;;5025808;28;20045;-81
2024/01/12 01:04:28;;;;;;;2.45;2.35;;;15.10;59.80;;;;;;5025618;28;20049;-81
2024/01/12 01:06:53;;;;;;;2.55;2.42;;;15.10;59.90;;;;;;4993164;28;20422;-82
2024/01/12 01:09:19;;;;;;;2.38;2.17;;;15.00;59.20;;;;;;5025055;28;20049;-82
2024/01/12 01:11:45;;;;;;;2.15;2.05;;;15.00;59.20;;;;;;5025525;28;20115;-82
2024/01/12 01:14:10;;;;;;;2.88;2.10;;;15.00;59.20;;;;;;5023313;28;20057;-82
2024/01/12 01:16:36;;;;;;;2.00;1.90;;;15.00;59.40;;;;;;5027530;28;20068;-81
2024/01/12 01:19:01;;;;;;;2.65;2.45;;;15.00;59.50;;;;;;5023534;28;20518;-83
2024/01/12 01:21:27;;;;;;;2.13;2.00;;;15.00;59.40;;;;;;5026298;28;20517;-83
2024/01/12 01:23:53;;;;;;;2.40;2.30;;;15.00;59.40;;;;;;5021779;28;20087;-82
2024/01/12 01:26:19;;;;;;;2.22;2.08;;;15.00;59.40;;;;;;5023762;28;20096;-83
2024/01/12 01:28:45;;;;;;;1.85;1.75;;;15.00;61.00;;;;;;5028151;28;20459;-83
2024/01/12 01:31:10;;;;;;;2.53;2.33;;;14.90;59.50;;;;;;5023668;28;20033;-85
2024/01/12 01:33:36;;;;;;;2.28;2.17;;;15.00;60.50;;;;;;5024530;28;20042;-83
2024/01/12 01:36:01;;;;;;;2.35;2.20;;;15.00;60.00;;;;;;5022689;28;20033;-85
2024/01/12 01:38:27;;;;;;;2.17;2.08;;;14.90;59.70;;;;;;5026387;28;20053;-84
2024/01/12 01:40:52;;;;;;;2.20;2.10;;;14.90;60.40;;;;;;5012532;28;20068;-85
2024/01/12 01:43:18;;;;;;;2.10;2.00;;;14.90;59.90;;;;;;5038613;28;20179;-85
2024/01/12 01:45:43;;;;;;;2.05;1.95;;;14.90;59.60;;;;;;5025080;28;20041;-84
2024/01/12 01:48:09;;;;;;;2.13;2.03;;;14.90;59.70;;;;;;5016291;28;20050;-83
2024/01/12 01:50:35;;;;;;;2.00;1.90;;;14.90;59.70;;;;;;5007079;28;20053;-82
2024/01/12 01:53:00;;;;;;;2.55;2.45;;;14.90;59.80;;;;;;5023986;28;20121;-83
2024/01/12 01:55:27;;;;;;;2.10;2.00;;;14.90;59.70;;;;;;5025539;28;20045;-83
2024/01/12 01:57:53;;;;;;;2.40;2.20;;;14.90;59.70;;;;;;5008039;28;20048;-82
2024/01/12 02:00:19;;;;;;;2.20;2.10;;;14.90;60.10;;;;;;5007665;28;20050;-82
2024/01/12 02:02:44;;;;;;;2.30;2.10;;;14.90;60.00;;;;;;5003775;28;20523;-81
2024/01/12 02:05:10;;;;;;;2.20;2.00;;;14.90;59.70;;;;;;5007520;28;20524;-81
2024/01/12 02:07:39;;;;;;;1.90;1.80;;;14.80;59.80;;;;;;5027036;28;20045;-80
2024/01/12 02:10:06;;;;;;;2.20;2.10;;;14.90;59.80;;;;;;5025013;28;20037;-82
2024/01/12 02:12:33;;;;;;;2.22;2.13;;;14.80;59.70;;;;;;5026002;28;20064;-82
2024/01/12 02:14:59;;;;;;;2.72;2.28;;;14.80;59.70;;;;;;5026434;28;20056;-82
2024/01/12 02:17:25;;;;;;;2.13;1.92;;;14.80;59.80;;;;;;5024609;28;20034;-84
2024/01/12 02:19:57;;;;;;;1.83;1.73;;;14.80;59.90;;;;;;5026389;28;20052;-84
2024/01/12 02:22:22;;;;;;;1.83;1.73;;;14.80;59.90;;;;;;5028091;28;20099;-84
2024/01/12 02:24:48;;;;;;;2.17;1.92;;;14.80;59.90;;;;;;5023678;28;20543;-84
2024/01/12 02:27:13;;;;;;;2.10;1.95;;;14.80;60.60;;;;;;5025516;28;20052;-84
2024/01/12 02:29:39;;;;;;;1.80;1.70;;;14.80;60.00;;;;;;5007617;28;20048;-84
2024/01/12 02:32:04;;;;;;;1.70;1.60;;;14.80;60.00;;;;;;5038795;28;20130;-83
2024/01/12 02:34:30;;;;;;;1.80;1.70;;;14.80;60.20;;;;;;5012445;28;20052;-83
2024/01/12 02:36:56;;;;;;;1.85;1.75;;;14.80;60.10;;;;;;4991255;28;20124;-83
2024/01/12 02:39:21;;;;;;;1.80;1.70;;;14.70;60.10;;;;;;5026980;28;20045;-84
2024/01/12 02:41:47;;;;;;;1.90;1.80;;;14.70;60.20;;;;;;5022350;28;20045;-84
2024/01/12 02:44:12;;;;;;;1.90;1.80;;;14.70;60.20;;;;;;5001078;28;20427;-83
2024/01/12 02:46:38;;;;;;;1.60;1.50;;;14.70;60.20;;;;;;5007782;28;20038;-84
2024/01/12 02:49:04;;;;;;;1.95;1.85;;;14.70;60.10;;;;;;5008265;28;20045;-83
2024/01/12 02:51:30;;;;;;;1.88;1.50;;;14.70;60.10;;;;;;5023019;28;20045;-84
2024/01/12 02:53:55;;;;;;;1.63;1.52;;;14.70;60.10;;;;;;5007144;28;20210;-82
2024/01/12 02:56:21;;;;;;;1.73;1.63;;;14.70;60.10;;;;;;5022280;28;20499;-81
2024/01/12 02:58:47;;;;;;;1.60;1.50;;;14.70;60.30;;;;;;5008964;28;20037;-81
2024/01/12 03:01:13;;;;;;;1.88;1.77;;;14.70;60.10;;;;;;5022490;28;20099;-82
2024/01/12 03:03:38;;;;;;;1.75;1.65;;;14.70;60.20;;;;;;4999395;28;20041;-82
2024/01/12 03:06:05;;;;;;;1.70;1.60;;;14.70;60.20;;;;;;5006724;28;20132;-82
2024/01/12 03:08:30;;;;;;;1.60;1.50;;;14.70;60.30;;;;;;5022499;28;20042;-83
2024/01/12 03:10:56;;;;;;;1.77;1.67;;;14.70;60.20;;;;;;5025588;28;20059;-83
2024/01/12 03:13:21;;;;;;;1.50;1.40;;;14.70;60.30;;;;;;5007339;28;20041;-82
2024/01/12 03:15:47;;;;;;;1.50;1.40;;;14.70;60.30;;;;;;5019424;28;20553;-81
2024/01/12 03:18:14;;;;;;;1.80;1.70;;;14.70;60.70;;;;;;5021156;28;20414;-82
2024/01/12 03:20:39;;;;;;;1.40;1.30;;;14.70;60.30;;;;;;5008133;28;20037;-83
2024/01/12 03:23:05;;;;;;;1.63;1.52;;;14.70;61.40;;;;;;5019843;28;20045;-83
2024/01/12 03:25:31;;;;;;;1.58;1.48;;;14.70;61.60;;;;;;5023595;28;20124;-82
2024/01/12 03:27:58;;;;;;;1.25;1.17;;;14.70;62.60;;;;;;5007400;28;20046;-82
2024/01/12 03:30:24;;;;;;;1.70;1.60;;;14.70;62.10;;;;;;5023838;28;20152;-82
2024/01/12 03:32:49;;;;;;;1.40;1.30;;;14.70;62.50;;;;;;5022014;28;20551;-82
2024/01/12 03:35:15;;;;;;;1.23;1.13;;;14.70;63.60;;;;;;5024174;28;20120;-83
2024/01/12 03:37:40;;;;;;;1.27;1.20;;;14.70;63.10;;;;;;5008367;28;20048;-83
2024/01/12 03:40:06;;;;;;;1.40;1.30;;;14.70;63.20;;;;;;5018224;28;20049;-83
2024/01/12 03:42:32;;;;;;;1.60;1.50;;;14.70;63.50;;;;;;4999681;28;20038;-83
2024/01/12 03:44:58;;;;;;;1.40;1.30;;;14.70;63.60;;;;;;5011090;28;20039;-82
2024/01/12 03:47:23;;;;;;;1.25;1.25;;;14.70;64.10;;;;;;5021845;28;20500;-83
2024/01/12 03:49:49;;;;;;;1.42;1.33;;;14.70;63.70;;;;;;5025639;28;20062;-82
2024/01/12 03:52:15;;;;;;;1.65;1.40;;;14.70;63.60;;;;;;5008320;28;20103;-83
2024/01/12 03:54:40;;;;;;;1.27;1.17;;;14.60;63.40;;;;;;5022086;28;20468;-83
2024/01/12 03:57:06;;;;;;;1.20;1.10;;;14.60;63.40;;;;;;5006179;28;20460;-82
2024/01/12 03:59:31;;;;;;;0.98;0.98;;;14.60;62.60;;;;;;5000392;28;20037;-83
2024/01/12 04:01:57;;;;;;;1.30;1.20;;;14.70;62.80;;;;;;5010139;28;20033;-83
2024/01/12 04:04:23;;;;;;;1.00;1.00;;;14.60;62.40;;;;;;5015267;28;20046;-83
2024/01/12 04:06:48;;;;;;;1.50;1.40;;;14.60;62.40;;;;;;5010715;28;20503;-82
2024/01/12 04:09:14;;;;;;;1.23;1.20;;;14.60;62.40;;;;;;5017098;28;20051;-84
2024/01/12 04:11:39;;;;;;;1.13;1.13;;;14.60;62.30;;;;;;5021947;28;20554;-85
2024/01/12 04:14:05;;;;;;;0.93;0.93;;;14.60;62.20;;;;;;5023250;28;20115;-85
2024/01/12 04:16:31;;;;;;;1.20;1.10;;;14.60;62.10;;;;;;5022775;28;20057;-85
2024/01/12 04:18:56;;;;;;;0.85;0.85;;;14.60;62.10;;;;;;5019611;28;20060;-83
2024/01/12 04:21:22;;;;;;;1.10;1.10;;;14.60;62.00;;;;;;5023516;28;20038;-83
2024/01/12 04:23:47;;;;;;;0.93;0.93;;;14.60;62.00;;;;;;5019322;28;20037;-82
2024/01/12 04:26:13;;;;;;;1.20;1.10;;;14.60;62.00;;;;;;5021111;28;20061;-82
2024/01/12 04:28:38;;;;;;;1.10;0.90;;;14.60;61.90;;;;;;5024004;28;20037;-82
2024/01/12 04:31:04;;;;;;;1.20;1.10;;;14.60;62.70;;;;;;5020393;28;20523;-82
2024/01/12 04:33:31;;;;;;;0.90;0.90;;;14.60;61.90;;;;;;5021535;28;20042;-84
2024/01/12 04:35:57;;;;;;;1.02;1.02;;;14.60;62.70;;;;;;5019835;28;20030;-83
2024/01/12 04:38:23;;;;;;;0.90;0.90;;;14.60;61.90;;;;;;5020354;28;21807;-84
2024/01/12 04:40:48;;;;;;;1.17;1.08;;;14.60;61.90;;;;;;5034220;28;20499;-83
2024/01/12 04:43:14;;;;;;;1.02;1.00;;;14.60;61.80;;;;;;5023523;28;20092;-84
2024/01/12 04:45:40;;;;;;;1.20;1.10;;;14.60;61.90;;;;;;5023931;28;20068;-84
2024/01/12 04:48:05;;;;;;;1.00;0.90;;;14.60;61.90;;;;;;5021576;28;20443;-84
2024/01/12 04:50:31;;;;;;;1.00;1.00;;;14.50;61.90;;;;;;5022195;28;20403;-85
2024/01/12 04:52:57;;;;;;;0.90;0.90;;;14.60;62.10;;;;;;5021521;28;20048;-85
2024/01/12 04:55:23;;;;;;;0.90;0.90;;;14.50;62.10;;;;;;5020969;28;20042;-85
2024/01/12 04:57:48;;;;;;;0.88;0.88;;;14.50;62.10;;;;;;5012384;28;20458;-84
2024/01/12 05:00:15;;;;;;;0.85;0.85;;;14.50;62.80;;;;;;4999463;28;20108;-85
2024/01/12 05:02:40;;;;;;;2.17;0.77;;;14.50;62.20;;;;;;5010359;28;20055;-86
2024/01/12 05:05:08;;;;;;;0.70;0.70;;;14.50;62.00;;;;;;5019027;28;20514;-86
2024/01/12 05:07:34;;;;;;;0.57;0.57;;;14.50;61.90;;;;;;5025934;28;20045;-85
2024/01/12 05:09:59;;;;;;;0.80;0.80;;;14.50;61.90;;;;;;5023491;28;20392;-82
2024/01/12 05:12:25;;;;;;;0.80;0.80;;;14.50;62.00;;;;;;5010589;28;20069;-83
2024/01/12 05:14:50;;;;;;;1.02;1.02;;;14.50;62.10;;;;;;5018452;28;21385;-83
2024/01/12 05:17:16;;;;;;;0.70;0.70;;;14.50;62.20;;;;;;5022263;28;20505;-83
2024/01/12 05:19:42;;;;;;;1.00;0.90;;;14.50;62.20;;;;;;5023920;28;20049;-84
2024/01/12 05:22:07;;;;;;;0.70;0.70;;;14.50;62.10;;;;;;5020942;28;20859;-84
2024/01/12 05:24:33;;;;;;;0.60;0.60;;;14.40;62.30;;;;;;5018163;28;20111;-84
2024/01/12 05:26:59;;;;;;;0.70;0.70;;;14.40;62.20;;;;;;5017982;28;20136;-84
2024/01/12 05:29:24;;;;;;;0.80;0.80;;;14.40;62.20;;;;;;5018104;28;20033;-83
2024/01/12 05:31:50;;;;;;;0.93;0.82;;;14.50;62.20;;;;;;5021861;28;20503;-82
2024/01/12 05:34:16;;;;;;;0.70;0.70;;;14.40;62.20;;;;;;5019866;28;20503;-83
2024/01/12 05:36:41;;;;;;;0.93;0.88;;;14.40;62.20;;;;;;5020350;28;20121;-83
2024/01/12 05:39:07;;;;;;;1.23;0.63;;;14.40;62.30;;;;;;5024974;28;20077;-83
2024/01/12 05:41:32;;;;;;;0.70;0.70;;;14.40;62.50;;;;;;5025340;28;20049;-83
2024/01/12 05:43:58;;;;;;;0.75;0.75;;;14.40;62.30;;;;;;5011944;28;20049;-83
2024/01/12 05:46:23;;;;;;;0.90;0.90;;;14.40;62.20;;;;;;5022513;28;20041;-84
2024/01/12 05:48:49;;;;;;;0.80;0.80;;;14.40;62.40;;;;;;5017546;28;20132;-83
2024/01/12 05:51:15;;;;;;;0.80;0.80;;;14.40;62.30;;;;;;5021836;28;20463;-83
2024/01/12 05:53:41;;;;;;;1.98;0.85;;;14.40;63.10;;;;;;5023560;28;20685;-83
2024/01/12 05:56:06;;;;;;;1.50;0.80;;;14.40;62.30;;;;;;5021863;28;20129;-83
2024/01/12 05:58:32;;;;;;;0.93;0.90;;;14.40;62.30;;;;;;5024440;28;20041;-83
2024/01/12 06:00:58;;;;;;;0.80;0.80;;;14.40;62.20;;;;;;5021782;28;20056;-84
2024/01/12 06:03:28;;;;;;;0.80;0.80;;;14.30;62.10;;;;;;5017017;28;20397;-85
2024/01/12 06:05:56;;;;;;;0.77;0.77;;;14.40;62.20;;;;;;5024096;28;20155;-83
2024/01/12 06:08:22;;;;;;;0.88;0.88;;;14.40;62.30;;;;;;5021937;28;20454;-84
2024/01/12 06:10:47;;;;;;;0.63;0.63;;;14.40;62.80;;;;;;5026701;28;20052;-86
2024/01/12 06:13:13;;;;;;;0.93;0.60;;;14.40;62.30;;;;;;5024160;28;20068;-84
2024/01/12 06:15:39;;;;;;;0.70;0.70;;;14.40;62.30;;;;;;5024862;28;20522;-84
2024/01/12 06:18:05;;;;;;;0.90;0.90;;;14.40;62.80;;;;;;5023141;28;20038;-84
2024/01/12 06:20:30;;;;;;;0.73;0.73;;;14.40;62.20;;;;;;5014948;28;20515;-83
2024/01/12 06:22:56;;;;;;;0.65;0.65;;;14.40;62.30;;;;;;5023665;28;20045;-83
2024/01/12 06:25:23;;;;;;;0.80;0.80;;;14.30;62.30;;;;;;5024961;28;20049;-83
2024/01/12 06:27:49;;;;;;;0.82;0.82;;;14.40;62.60;;;;;;5022600;28;20053;-82
2024/01/12 06:30:15;;;;;;;0.80;0.80;;;14.40;62.50;;;;;;5024625;28;20041;-83
2024/01/12 06:32:40;;;;;;;0.90;0.85;;;14.40;63.10;;;;;;5017226;28;20050;-84
2024/01/12 06:35:10;;;;;;;7.82;4.10;;;14.40;62.80;;;;;;5025938;28;20046;-84
2024/01/12 06:37:35;;;;;;;6.47;3.95;;;14.40;62.90;;;;;;5023309;28;20500;-84
2024/01/12 06:40:01;;;;;;;2.63;2.30;;;14.50;63.20;;;;;;5019595;28;20049;-82
2024/01/12 06:42:28;;;;;;;3.95;3.08;;;14.50;63.20;;;;;;5018326;28;20052;-82
2024/01/12 06:44:54;;;;;;;5.13;3.42;;;14.60;62.70;;;;;;4665009;28;10000610;-81
2024/01/12 06:47:20;;;;;;;3.05;2.78;;;14.60;63.20;;;;;;5005460;28;20033;-81
2024/01/12 06:49:45;;;;;;;2.53;2.35;;;14.60;63.30;;;;;;5006939;28;20485;-81
2024/01/12 06:52:11;;;;;;;3.15;1.98;;;14.50;63.30;;;;;;5003025;28;20029;-81
2024/01/12 06:54:37;;;;;;;2.45;1.88;;;14.50;63.30;;;;;;5005028;28;20049;-82
2024/01/12 06:57:03;;;;;;;4.50;2.10;;;14.50;63.40;;;;;;5015046;28;20035;-81
2024/01/12 06:59:28;;;;;;;1.80;1.70;;;14.50;63.40;;;;;;5019812;28;20042;-82
2024/01/12 07:01:54;;;;;;;2.10;2.00;;;14.60;63.50;;;;;;5016887;28;20034;-80
2024/01/12 07:04:19;;;;;;;2.35;2.15;;;14.60;63.40;;;;;;5036805;28;20118;-82
2024/01/12 07:06:45;;;;;;;2.33;2.13;;;14.60;63.60;;;;;;5019389;28;20136;-81
2024/01/12 07:09:14;;;;;;;3.47;2.28;;;14.60;63.90;;;;;;4986840;28;20113;-81
2024/01/12 07:11:43;;;;;;;3.40;2.75;;;14.60;63.30;;;;;;5017755;28;20037;-81
2024/01/12 07:14:09;;;;;;;3.42;3.13;;;14.60;63.40;;;;;;5018384;28;20071;-81
2024/01/12 07:16:35;;;;;;;2.90;2.70;;;14.60;63.30;;;;;;4988135;28;20579;-81
2024/01/12 07:19:01;;;;;;;3.85;3.55;;;14.60;63.40;;;;;;4992256;28;20724;-79
2024/01/12 07:21:26;;;;;;;3.40;3.10;;;14.60;63.90;;;;;;5018963;28;20371;-81
2024/01/12 07:23:52;;;;;;;3.30;3.10;;;14.70;63.50;;;;;;5012626;28;20044;-81
2024/01/12 07:26:17;;;;;;;3.10;2.90;;;14.70;63.10;;;;;;5014831;28;20150;-80
2024/01/12 07:28:43;;;;;;;3.42;3.13;;;14.70;63.10;;;;;;5022089;28;20584;-81
2024/01/12 07:31:08;;;;;;;3.80;2.80;;;14.70;63.10;;;;;;5019621;28;20415;-80
2024/01/12 07:33:34;;;;;;;4.22;3.15;;;14.70;63.20;;;;;;4999756;28;20030;-84
2024/01/12 07:35:59;;;;;;;3.42;3.13;;;14.70;63.60;;;;;;5002860;28;20037;-81
2024/01/12 07:38:25;;;;;;;8.00;2.95;;;14.80;63.50;;;;;;4999425;28;20041;-81
2024/01/12 07:40:51;;;;;;;3.03;2.72;;;14.80;63.70;;;;;;4993190;28;20045;-82
2024/01/12 07:43:16;;;;;;;10.27;3.03;;;14.80;64.00;;;;;;5021071;28;20099;-81
2024/01/12 07:45:42;;;;;;;7.05;2.88;;;14.80;63.10;;;;;;5023608;28;20053;-81
2024/01/12 07:48:09;;;;;;;3.47;3.28;;;14.80;63.10;;;;;;5007770;28;20515;-81
2024/01/12 07:50:34;;;;;;;3.28;3.08;;;14.80;63.00;;;;;;5052569;28;20091;-81
2024/01/12 07:53:00;;;;;;;3.40;3.10;;;14.90;62.70;;;;;;5021561;28;20143;-81
2024/01/12 07:55:27;;;;;;;3.15;2.90;;;15.00;62.50;;;;;;5023618;28;20038;-82
2024/01/12 07:57:53;;;;;;;3.72;2.92;;;15.00;62.80;;;;;;5022772;28;20053;-82
2024/01/12 08:00:18;;;;;;;3.50;3.20;;;15.10;61.70;;;;;;5021243;28;20053;-82
2024/01/12 08:02:44;;;;;;;3.42;3.20;;;15.20;61.50;;;;;;5024321;28;20491;-82
2024/01/12 08:05:09;;;;;;;3.20;3.00;;;15.20;61.30;;;;;;4996217;28;20100;-82
2024/01/12 08:07:36;;;;;;;3.20;3.00;;;15.20;61.00;;;;;;4995957;28;20081;-82
2024/01/12 08:10:01;;;;;;;3.70;3.40;;;15.30;60.80;;;;;;5017162;28;20075;-81
2024/01/12 08:12:27;;;;;;;3.65;3.35;;;15.40;60.50;;;;;;5019796;28;20476;-81
2024/01/12 08:14:53;;;;;;;3.20;3.00;;;15.40;60.30;;;;;;5022227;28;20057;-82
2024/01/12 08:17:18;;;;;;;3.30;3.00;;;15.50;60.20;;;;;;5052374;28;20451;-82
2024/01/12 08:19:44;;;;;;;3.05;2.60;;;15.50;60.10;;;;;;5023060;28;20104;-82
2024/01/12 08:22:09;;;;;;;3.10;2.90;;;15.50;59.90;;;;;;5007678;28;20261;-81
2024/01/12 08:24:35;;;;;;;3.50;3.22;;;15.50;60.00;;;;;;5020313;28;20200;-81
2024/01/12 08:27:00;;;;;;;2.95;2.70;;;15.50;59.80;;;;;;5022408;28;20084;-82
2024/01/12 08:29:26;;;;;;;3.15;2.75;;;15.60;59.80;;;;;;4992095;28;20507;-81
2024/01/12 08:31:52;;;;;;;3.00;2.80;;;15.60;59.70;;;;;;5016318;28;20129;-82
2024/01/12 08:34:18;;;;;;;3.20;2.65;;;15.60;59.80;;;;;;5020783;28;20540;-81
2024/01/12 08:36:44;;;;;;;3.22;2.90;;;15.60;59.70;;;;;;5020871;28;20034;-82
2024/01/12 08:39:09;;;;;;;2.50;2.30;;;15.60;59.70;;;;;;5019774;28;20284;-81
2024/01/12 08:41:36;;;;;;;2.40;2.30;;;15.60;59.50;;;;;;5021699;28;20132;-82
2024/01/12 08:44:01;;;;;;;2.83;2.60;;;15.60;59.60;;;;;;5005594;28;20065;-81
2024/01/12 08:46:27;;;;;;;2.90;2.50;;;15.60;59.50;;;;;;5024499;28;20068;-82
2024/01/12 08:48:54;;;;;;;2.45;2.25;;;15.60;59.90;;;;;;4989170;28;20092;-81
2024/01/12 08:51:20;;;;;;;2.20;2.10;;;15.60;59.50;;;;;;4999818;28;20582;-82
2024/01/12 08:53:45;;;;;;;2.88;2.50;;;15.60;59.40;;;;;;4987152;28;20054;-82
2024/01/12 08:56:11;;;;;;;2.15;2.05;;;15.60;59.50;;;;;;5019562;28;20546;-82
2024/01/12 08:58:38;;;;;;;2.42;2.15;;;15.60;59.50;;;;;;5025160;28;20407;-82
2024/01/12 09:01:03;;;;;;;2.55;2.40;;;15.60;59.50;;;;;;5020337;28;20034;-82
2024/01/12 09:03:29;;;;;;;2.30;2.20;;;15.60;59.60;;;;;;5018619;28;20104;-82
2024/01/12 09:05:54;;;;;;;2.25;2.15;;;15.50;59.50;;;;;;5022649;28;20046;-82
2024/01/12 09:08:20;;;;;;;2.10;2.00;;;15.60;60.30;;;;;;5018820;28;20044;-81
2024/01/12 09:10:46;;;;;;;2.03;1.70;;;15.60;59.70;;;;;;5025478;28;20422;-81
2024/01/12 09:13:11;;;;;;;2.35;2.15;;;15.60;59.60;;;;;;5021011;28;20037;-82
2024/01/12 09:15:37;;;;;;;2.00;1.90;;;15.60;59.50;;;;;;5025359;28;20132;-81
2024/01/12 09:18:03;;;;;;;2.10;2.00;;;15.50;59.60;;;;;;5025292;28;20124;-81
2024/01/12 09:20:29;;;;;;;2.00;1.90;;;15.50;59.60;;;;;;5015118;28;20045;-82
2024/01/12 09:22:55;;;;;;;2.15;1.98;;;15.50;59.60;;;;;;5023284;28;20044;-82
2024/01/12 09:25:20;;;;;;;1.83;1.73;;;15.50;59.70;;;;;;5024648;28;20530;-81
2024/01/12 09:27:46;;;;;;;1.70;1.60;;;15.50;59.70;;;;;;5010600;28;20140;-82
2024/01/12 09:30:12;;;;;;;2.10;2.00;;;15.50;59.70;;;;;;5024854;28;20507;-81
2024/01/12 09:32:37;;;;;;;2.45;1.50;;;15.50;59.70;;;;;;5028125;28;20459;-82
2024/01/12 09:35:03;;;;;;;1.60;1.50;;;15.40;59.70;;;;;;4993532;28;20125;-81
2024/01/12 09:37:28;;;;;;;2.58;1.50;;;15.40;59.80;;;;;;5006886;28;20123;-81
2024/01/12 09:39:54;;;;;;;1.77;1.67;;;15.40;60.60;;;;;;5023693;28;20419;-82
2024/01/12 09:42:19;;;;;;;2.25;2.08;;;15.40;59.80;;;;;;5025593;28;20411;-82
2024/01/12 09:44:45;;;;;;;1.70;1.60;;;15.40;60.00;;;;;;4994653;28;20418;-81
2024/01/12 09:47:12;;;;;;;1.48;1.38;;;15.30;59.90;;;;;;5009464;28;20034;-81
2024/01/12 09:49:37;;;;;;;1.52;1.45;;;15.40;60.00;;;;;;5029224;28;20041;-81
2024/01/12 09:52:03;;;;;;;1.60;1.50;;;15.40;60.00;;;;;;5009460;28;20033;-82
2024/01/12 09:54:29;;;;;;;1.80;1.70;;;15.30;59.90;;;;;;5040549;28;20049;-81
2024/01/12 09:56:56;;;;;;;5.15;1.58;;;15.30;60.00;;;;;;4993348;28;20045;-81
2024/01/12 09:59:22;;;;;;;1.50;1.40;;;15.30;60.00;;;;;;5020914;28;20080;-82
2024/01/12 10:01:48;;;;;;;1.83;1.73;;;15.30;60.20;;;;;;5022845;28;20068;-81
2024/01/12 10:04:14;;;;;;;1.50;1.40;;;15.30;60.00;;;;;;5024355;28;20111;-82
2024/01/12 10:06:39;;;;;;;1.85;1.42;;;15.30;60.10;;;;;;5025155;28;20500;-81
2024/01/12 10:09:06;;;;;;;1.60;1.50;;;15.30;60.10;;;;;;5024349;28;20420;-82
2024/01/12 10:11:32;;;;;;;1.50;1.40;;;15.30;60.80;;;;;;5010015;28;20068;-82
2024/01/12 10:13:57;;;;;;;1.85;1.70;;;15.20;60.10;;;;;;5025315;28;20597;-82
2024/01/12 10:16:28;;;;;;;2.00;1.65;;;15.20;60.20;;;;;;5024972;28;20044;-81
2024/01/12 10:18:55;;;;;;;1.17;1.17;;;15.20;60.10;;;;;;5023681;28;20540;-82
2024/01/12 10:21:20;;;;;;;1.50;1.40;;;15.20;60.20;;;;;;5022781;28;20033;-81
2024/01/12 10:23:46;;;;;;;1.50;1.40;;;15.20;60.30;;;;;;4992444;28;20119;-82
2024/01/12 10:26:15;;;;;;;1.13;1.10;;;15.10;60.10;;;;;;5021867;28;20049;-82
2024/01/12 10:28:41;;;;;;;1.00;1.00;;;15.20;60.20;;;;;;5027459;28;20534;-82
2024/01/12 10:31:06;;;;;;;1.27;1.27;;;15.20;60.10;;;;;;5023584;28;20045;-82
2024/01/12 10:33:33;;;;;;;1.35;1.25;;;15.10;60.10;;;;;;5019991;28;20045;-81
2024/01/12 10:36:13;;;;;;;1.50;1.40;;;15.10;60.10;;;;;;5025494;28;20049;-82
2024/01/12 10:38:38;;;;;;;1.15;1.15;;;15.10;60.30;;;;;;5054295;28;20038;-82
2024/01/12 10:41:07;;;;;;;1.40;1.30;;;15.10;60.30;;;;;;5058839;28;20045;-81
2024/01/12 10:43:37;;;;;;;1.40;1.30;;;15.10;60.30;;;;;;5025066;28;20334;-81
2024/01/12 10:46:11;;;;;;;1.20;1.20;;;15.10;61.00;;;;;;5025729;28;20053;-82
2024/01/12 10:48:44;;;;;;;1.30;1.20;;;15.10;60.20;;;;;;5023800;28;20188;-82
2024/01/12 10:51:09;;;;;;;1.40;1.30;;;15.10;60.30;;;;;;5022903;28;20156;-81
2024/01/12 10:53:41;;;;;;;1.20;1.10;;;15.10;60.30;;;;;;5022306;28;20523;-82
2024/01/12 10:56:07;;;;;;;0.98;0.98;;;15.10;60.40;;;;;;5007344;28;20050;-81
2024/01/12 10:58:32;;;;;;;1.20;1.10;;;15.00;60.30;;;;;;4993231;28;20048;-82
2024/01/12 11:00:58;;;;;;;1.40;1.30;;;15.00;60.40;;;;;;4997378;28;20499;-81
2024/01/12 11:03:23;;;;;;;1.33;1.23;;;15.00;60.40;;;;;;5019819;28;20041;-82
2024/01/12 11:05:49;;;;;;;1.02;1.02;;;15.00;60.50;;;;;;4988498;28;20129;-82
2024/01/12 11:08:14;;;;;;;1.27;1.27;;;15.00;60.50;;;;;;5039895;28;20128;-81
2024/01/12 11:10:50;;;;;;;1.30;1.20;;;14.90;60.40;;;;;;5026169;28;20523;-81
2024/01/12 11:13:16;;;;;;;1.20;1.10;;;15.00;60.60;;;;;;5023124;28;20050;-81
2024/01/12 11:15:42;;;;;;;1.23;1.23;;;15.00;60.50;;;;;;4991416;28;20403;-82
2024/01/12 11:18:08;;;;;;;1.20;1.20;;;14.90;60.50;;;;;;5035566;28;20057;-82
2024/01/12 11:20:33;;;;;;;1.05;1.05;;;15.00;60.50;;;;;;5017451;28;20568;-81
2024/01/12 11:22:59;;;;;;;1.40;1.30;;;14.90;60.50;;;;;;5022686;28;20049;-82
2024/01/12 11:25:25;;;;;;;1.42;1.35;;;14.90;60.40;;;;;;5008148;28;20103;-81
2024/01/12 11:27:51;;;;;;;1.35;1.25;;;14.90;60.50;;;;;;5018519;28;20079;-82
2024/01/12 11:30:17;;;;;;;2.10;1.10;;;14.90;60.40;;;;;;4997066;28;20059;-82
2024/01/12 11:32:44;;;;;;;1.02;1.02;;;14.90;60.40;;;;;;5022217;28;20124;-81
2024/01/12 11:35:13;;;;;;;1.13;1.13;;;14.90;60.20;;;;;;5020380;28;20508;-81
2024/01/12 11:37:40;;;;;;;1.00;1.00;;;14.90;60.30;;;;;;5006548;28;20510;-82
2024/01/12 11:40:09;;;;;;;1.20;1.10;;;14.90;60.40;;;;;;4980338;28;20434;-82
2024/01/12 11:42:38;;;;;;;2.35;1.27;;;14.90;60.00;;;;;;4996353;28;20112;-79
2024/01/12 11:45:11;;;;;;;5.43;1.42;;;14.90;59.80;;;;;;4996245;28;21263;-82
2024/01/12 11:47:40;;;;;;;15.05;6.50;;;14.90;59.70;;;;;;4985870;28;20387;-80
2024/01/12 11:50:09;;;;;;;4.70;3.90;;;14.90;60.30;;;;;;4999144;28;20049;-80
2024/01/12 11:52:38;;;;;;;3.90;3.42;;;15.00;60.10;;;;;;4980955;28;20037;-81
2024/01/12 11:55:07;;;;;;;5.18;3.10;;;15.10;60.00;;;;;;4970662;28;20038;-80
2024/01/12 11:57:33;;;;;;;5.18;2.90;;;15.10;60.10;;;;;;4993998;28;20096;-81
2024/01/12 11:59:58;;;;;;;5.75;2.97;;;15.10;60.20;;;;;;4980903;28;20073;-80
2024/01/12 12:02:24;;;;;;;3.33;2.55;;;15.10;60.20;;;;;;4997501;28;20556;-80
2024/01/12 12:04:51;;;;;;;2.80;2.50;;;15.10;60.30;;;;;;4996464;28;20056;-82
2024/01/12 12:07:26;;;;;;;4.43;2.53;;;15.10;60.30;;;;;;4633859;28;9999707;-80
2024/01/12 12:09:52;;;;;;;4.03;2.33;;;15.10;60.40;;;;;;4973045;28;20079;-80
2024/01/12 12:12:18;;;;;;;3.30;2.30;;;15.10;60.40;;;;;;4995270;28;20127;-80
2024/01/12 12:15:07;;;;;;;10.70;2.38;;;15.10;60.30;;;;;;4962772;28;20554;-80
2024/01/12 12:17:35;;;;;;;4.80;2.00;;;15.10;60.30;;;;;;4989349;28;20045;-80
2024/01/12 12:20:01;;;;;;;4.18;1.92;;;15.00;60.50;;;;;;4984112;28;20050;-79
2024/01/12 12:22:27;;;;;;;3.83;2.97;;;15.10;60.50;;;;;;4958452;28;20111;-80
2024/01/12 12:24:53;;;;;;;3.88;1.90;;;15.10;60.60;;;;;;4970113;28;20058;-80
2024/01/12 12:27:19;;;;;;;3.38;2.00;;;15.10;60.80;;;;;;4958366;28;21182;-80
2024/01/12 12:29:45;;;;;;;3.30;1.88;;;15.10;60.70;;;;;;4966797;28;20042;-87
2024/01/12 12:32:12;;;;;;;6.03;2.40;;;15.10;60.70;;;;;;4989534;28;20056;-85
2024/01/12 12:34:39;;;;;;;2.13;2.00;;;15.10;60.70;;;;;;4975727;28;20053;-84
2024/01/12 12:37:08;;;;;;;3.38;2.60;;;15.10;60.70;;;;;;4994308;28;21559;-85
2024/01/12 12:39:36;;;;;;;3.05;2.40;;;15.10;60.70;;;;;;4991734;28;20495;-85